createdAt,value
2022-08-26T00:00:57.882Z,5.47
2022-08-26T00:03:02.080Z,6.20
2022-08-26T00:05:06.171Z,5.65
2022-08-26T00:07:11.845Z,6.13
2022-08-26T00:09:16.118Z,5.97
2022-08-26T00:11:26.993Z,5.95
2022-08-26T00:13:29.842Z,5.90
2022-08-26T00:15:32.712Z,5.65
2022-08-26T00:17:35.833Z,5.55
2022-08-26T00:19:44.192Z,6.28
2022-08-26T00:21:48.735Z,5.78
2022-08-26T00:23:52.395Z,5.80
2022-08-26T00:25:55.277Z,5.78
2022-08-26T00:27:59.463Z,6.03
2022-08-26T00:30:02.211Z,5.22
2022-08-26T00:32:05.210Z,6.28
2022-08-26T00:34:08.370Z,6.38
2022-08-26T00:36:20.305Z,5.60
2022-08-26T00:38:23.321Z,6.00
2022-08-26T00:40:30.738Z,5.80
2022-08-26T00:42:33.481Z,6.00
2022-08-26T00:44:36.257Z,5.65
2022-08-26T00:46:44.995Z,7.28
2022-08-26T00:48:53.597Z,5.90
2022-08-26T00:50:59.360Z,5.80
2022-08-26T00:53:21.426Z,5.97
2022-08-26T00:55:34.675Z,5.90
2022-08-26T00:57:41.067Z,5.80
2022-08-26T00:59:48.146Z,5.57
2022-08-26T01:01:51.619Z,5.45
2022-08-26T01:03:56.495Z,6.10
2022-08-26T01:06:00.925Z,5.78
2022-08-26T01:08:05.207Z,5.72
2022-08-26T01:10:11.305Z,5.70
2022-08-26T01:12:14.944Z,6.30
2022-08-26T01:14:27.705Z,5.70
2022-08-26T01:16:31.922Z,6.32
2022-08-26T01:18:35.878Z,5.43
2022-08-26T01:20:47.152Z,5.47
2022-08-26T01:22:57.210Z,5.45
2022-08-26T01:25:03.719Z,5.28
2022-08-26T01:27:09.654Z,5.43
2022-08-26T01:29:16.804Z,6.20
2022-08-26T01:31:23.760Z,5.90
2022-08-26T01:33:39.015Z,6.22
2022-08-26T01:35:45.688Z,6.10
2022-08-26T01:37:50.860Z,6.50
2022-08-26T01:39:57.833Z,5.75
2022-08-26T01:42:03.233Z,5.45
2022-08-26T01:44:09.695Z,6.07
2022-08-26T01:46:14.054Z,5.82
2022-08-26T01:48:21.218Z,5.88
2022-08-26T01:50:30.608Z,5.90
2022-08-26T01:52:36.790Z,5.72
2022-08-26T01:54:39.537Z,6.00
2022-08-26T01:56:44.171Z,5.68
2022-08-26T01:58:50.716Z,5.68
2022-08-26T02:00:54.254Z,5.57
2022-08-26T02:03:12.633Z,5.45
2022-08-26T02:05:18.975Z,5.72
2022-08-26T02:07:22.548Z,5.35
2022-08-26T02:09:29.402Z,5.68
2022-08-26T02:11:34.855Z,5.70
2022-08-26T02:13:44.552Z,5.72
2022-08-26T02:15:47.942Z,7.32
2022-08-26T02:17:52.658Z,5.70
2022-08-26T02:19:56.683Z,5.97
2022-08-26T02:22:01.608Z,6.28
2022-08-26T02:24:11.442Z,6.05
2022-08-26T02:26:19.338Z,5.97
2022-08-26T02:28:22.583Z,5.82
2022-08-26T02:30:32.975Z,5.75
2022-08-26T02:32:35.573Z,5.57
2022-08-26T02:34:38.226Z,5.80
2022-08-26T02:36:41.323Z,6.05
2022-08-26T02:38:43.913Z,5.72
2022-08-26T02:40:48.914Z,6.15
2022-08-26T02:42:56.103Z,5.75
2022-08-26T02:44:59.928Z,5.43
2022-08-26T02:47:04.461Z,5.70
2022-08-26T02:49:08.145Z,6.03
2022-08-26T02:51:11.369Z,6.10
2022-08-26T02:53:14.689Z,6.35
2022-08-26T02:55:17.595Z,5.57
2022-08-26T02:57:20.655Z,6.10
2022-08-26T02:59:24.802Z,6.00
2022-08-26T03:01:30.113Z,5.80
2022-08-26T03:03:34.365Z,6.13
2022-08-26T03:05:37.338Z,6.70
2022-08-26T03:07:40.925Z,6.13
2022-08-26T03:09:43.579Z,6.38
2022-08-26T03:11:47.194Z,6.13
2022-08-26T03:13:50.346Z,6.45
2022-08-26T03:15:53.031Z,6.70
2022-08-26T03:17:56.822Z,6.35
2022-08-26T03:20:01.084Z,6.93
2022-08-26T03:22:04.815Z,6.80
2022-08-26T03:24:07.593Z,6.60
2022-08-26T03:26:12.090Z,6.78
2022-08-26T03:28:14.812Z,7.00
2022-08-26T03:30:39.746Z,6.60
2022-08-26T03:32:48.141Z,6.30
2022-08-26T03:34:50.942Z,6.90
2022-08-26T03:36:55.319Z,6.35
2022-08-26T03:38:58.064Z,7.05
2022-08-26T03:41:01.003Z,6.85
2022-08-26T03:43:05.743Z,7.60
2022-08-26T03:45:11.934Z,6.85
2022-08-26T03:47:14.620Z,7.13
2022-08-26T03:49:17.482Z,6.65
2022-08-26T03:51:20.827Z,6.88
2022-08-26T03:53:25.132Z,7.00
2022-08-26T03:55:31.935Z,6.72
2022-08-26T03:57:34.697Z,6.50
2022-08-26T03:59:38.276Z,6.72
2022-08-26T04:01:43.992Z,7.40
2022-08-26T04:04:00.265Z,7.55
2022-08-26T04:06:06.079Z,6.82
2022-08-26T04:08:08.779Z,5.93
2022-08-26T04:10:20.390Z,7.13
2022-08-26T04:12:23.076Z,6.88
2022-08-26T04:14:28.628Z,6.65
2022-08-26T04:16:31.739Z,6.72
2022-08-26T04:18:37.114Z,7.07
2022-08-26T04:20:40.071Z,6.85
2022-08-26T04:22:43.095Z,6.63
2022-08-26T04:24:46.364Z,6.05
2022-08-26T04:26:50.868Z,6.35
2022-08-26T04:28:56.790Z,6.57
2022-08-26T04:30:59.399Z,6.07
2022-08-26T04:33:04.480Z,6.47
2022-08-26T04:35:15.410Z,7.35
2022-08-26T04:37:18.019Z,7.32
2022-08-26T04:39:21.128Z,6.18
2022-08-26T04:41:23.972Z,6.75
2022-08-26T04:43:30.594Z,5.90
2022-08-26T04:45:36.381Z,6.80
2022-08-26T04:47:39.357Z,6.55
2022-08-26T04:49:42.005Z,6.10
2022-08-26T04:51:44.600Z,6.68
2022-08-26T04:53:47.762Z,5.72
2022-08-26T04:55:52.422Z,6.72
2022-08-26T04:57:58.279Z,6.25
2022-08-26T05:00:02.216Z,6.38
2022-08-26T05:02:06.919Z,6.50
2022-08-26T05:04:09.713Z,7.00
2022-08-26T05:06:13.100Z,6.65
2022-08-26T05:08:16.588Z,6.30
2022-08-26T05:10:19.513Z,6.32
2022-08-26T05:12:23.268Z,6.85
2022-08-26T05:14:25.899Z,6.40
2022-08-26T05:16:30.335Z,6.13
2022-08-26T05:18:35.070Z,5.68
2022-08-26T05:20:40.587Z,6.30
2022-08-26T05:22:43.519Z,6.30
2022-08-26T05:24:46.488Z,7.13
2022-08-26T05:26:49.559Z,6.72
2022-08-26T05:28:54.944Z,6.35
2022-08-26T05:30:58.109Z,6.80
2022-08-26T05:33:02.505Z,6.18
2022-08-26T05:35:08.741Z,6.72
2022-08-26T05:37:11.657Z,6.40
2022-08-26T05:39:16.361Z,6.22
2022-08-26T05:41:21.567Z,5.90
2022-08-26T05:43:24.155Z,6.15
2022-08-26T05:45:28.341Z,6.25
2022-08-26T05:47:30.954Z,6.07
2022-08-26T05:49:34.906Z,5.97
2022-08-26T05:51:47.802Z,5.60
2022-08-26T05:53:54.352Z,5.97
2022-08-26T05:55:58.147Z,5.82
2022-08-26T05:58:01.048Z,6.18
2022-08-26T06:00:06.370Z,6.35
2022-08-26T06:02:09.105Z,6.82
2022-08-26T06:04:12.611Z,6.20
2022-08-26T06:06:20.767Z,6.13
2022-08-26T06:08:30.049Z,5.72
2022-08-26T06:10:33.414Z,5.75
2022-08-26T06:12:36.054Z,5.88
2022-08-26T06:14:38.611Z,6.38
2022-08-26T06:16:45.032Z,6.45
2022-08-26T06:18:48.605Z,6.32
2022-08-26T06:20:57.670Z,6.88
2022-08-26T06:23:19.719Z,7.95
2022-08-26T06:25:39.271Z,6.88
2022-08-26T06:27:41.870Z,7.47
2022-08-26T06:29:44.440Z,8.15
2022-08-26T06:31:47.108Z,7.03
2022-08-26T06:33:52.227Z,7.38
2022-08-26T06:35:54.817Z,7.38
2022-08-26T06:37:57.423Z,6.90
2022-08-26T06:40:01.512Z,6.78
2022-08-26T06:42:07.153Z,6.97
2022-08-26T06:44:09.691Z,6.93
2022-08-26T06:46:14.599Z,7.28
2022-08-26T06:48:20.032Z,7.07
2022-08-26T06:50:22.667Z,6.80
2022-08-26T06:52:25.478Z,7.07
2022-08-26T06:54:30.237Z,7.15
2022-08-26T06:56:36.742Z,6.68
2022-08-26T06:58:40.780Z,6.22
2022-08-26T07:00:47.416Z,6.50
2022-08-26T07:02:50.200Z,6.63
2022-08-26T07:04:52.996Z,6.07
2022-08-26T07:07:00.218Z,5.97
2022-08-26T07:09:05.943Z,6.47
2022-08-26T07:11:13.391Z,6.63
2022-08-26T07:13:18.173Z,6.45
2022-08-26T07:15:33.588Z,6.25
2022-08-26T07:17:36.295Z,6.32
2022-08-26T07:19:39.147Z,6.50
2022-08-26T07:21:42.453Z,6.70
2022-08-26T07:23:45.338Z,6.25
2022-08-26T07:25:49.497Z,6.15
2022-08-26T07:27:54.022Z,6.30
2022-08-26T07:29:58.455Z,6.35
2022-08-26T07:32:01.297Z,6.25
2022-08-26T07:34:04.507Z,5.75
2022-08-26T07:36:08.861Z,6.15
2022-08-26T07:38:11.528Z,5.93
2022-08-26T07:40:16.995Z,5.80
2022-08-26T07:42:21.729Z,6.00
2022-08-26T07:44:27.106Z,5.88
2022-08-26T07:46:31.103Z,5.35
2022-08-26T07:48:34.070Z,5.93
2022-08-26T07:50:49.115Z,5.80
2022-08-26T07:52:53.020Z,5.45
2022-08-26T07:54:56.968Z,5.70
2022-08-26T07:56:59.794Z,5.35
2022-08-26T07:59:02.462Z,5.57
2022-08-26T08:01:05.720Z,5.75
2022-08-26T08:03:11.563Z,5.00
2022-08-26T08:05:16.415Z,5.20
2022-08-26T08:07:20.148Z,5.22
2022-08-26T08:09:23.559Z,5.47
2022-08-26T08:11:29.492Z,5.28
2022-08-26T08:13:32.967Z,5.40
2022-08-26T08:15:37.548Z,5.60
2022-08-26T08:17:43.349Z,5.90
2022-08-26T08:19:48.019Z,5.38
2022-08-26T08:21:50.691Z,5.10
2022-08-26T08:23:55.307Z,5.88
2022-08-26T08:26:02.431Z,5.13
2022-08-26T08:28:05.327Z,5.32
2022-08-26T08:30:10.800Z,5.00
2022-08-26T08:32:17.758Z,5.30
2022-08-26T08:34:21.423Z,5.38
2022-08-26T08:36:25.961Z,5.60
2022-08-26T08:38:38.664Z,5.35
2022-08-26T08:40:42.384Z,5.63
2022-08-26T08:42:48.600Z,5.28
2022-08-26T08:44:54.043Z,5.32
2022-08-26T08:47:02.361Z,5.22
2022-08-26T08:49:05.003Z,5.65
2022-08-26T08:51:19.749Z,5.93
2022-08-26T08:53:31.029Z,5.35
2022-08-26T08:55:44.006Z,5.88
2022-08-26T08:58:05.003Z,5.15
2022-08-26T09:00:12.561Z,5.70
2022-08-26T09:02:24.930Z,4.82
2022-08-26T09:04:54.999Z,5.35
2022-08-26T09:07:02.732Z,5.53
2022-08-26T09:09:08.077Z,4.95
2022-08-26T09:11:11.437Z,5.20
2022-08-26T09:13:17.207Z,5.85
2022-08-26T09:15:36.192Z,5.43
2022-08-26T09:17:48.976Z,5.60
2022-08-26T09:19:55.022Z,5.35
2022-08-26T09:21:59.597Z,5.88
2022-08-26T09:24:02.236Z,6.05
2022-08-26T09:26:17.864Z,5.63
2022-08-26T09:28:23.051Z,5.88
2022-08-26T09:30:29.630Z,5.25
2022-08-26T09:32:32.237Z,6.13
2022-08-26T09:34:36.101Z,5.55
2022-08-26T09:36:41.154Z,5.40
2022-08-26T09:38:44.784Z,4.88
2022-08-26T09:40:59.171Z,5.45
2022-08-26T09:43:22.140Z,5.68
2022-08-26T09:45:29.436Z,5.47
2022-08-26T09:47:34.984Z,5.82
2022-08-26T09:49:39.779Z,5.20
2022-08-26T09:51:44.262Z,5.72
2022-08-26T09:53:54.683Z,5.13
2022-08-26T09:56:15.315Z,5.85
2022-08-26T09:58:34.281Z,5.13
2022-08-26T10:00:39.222Z,5.78
2022-08-26T10:02:47.891Z,5.75
2022-08-26T10:04:54.577Z,5.60
2022-08-26T10:07:00.095Z,5.13
2022-08-26T10:09:08.257Z,4.72
2022-08-26T10:11:18.791Z,5.18
2022-08-26T10:13:29.544Z,5.25
2022-08-26T10:15:43.369Z,5.38
2022-08-26T10:17:57.532Z,5.35
2022-08-26T10:20:22.894Z,5.60
2022-08-26T10:22:35.910Z,5.10
2022-08-26T10:24:42.532Z,5.93
2022-08-26T10:26:59.721Z,5.20
2022-08-26T10:29:11.286Z,5.60
2022-08-26T10:31:27.704Z,5.00
2022-08-26T10:33:31.428Z,5.45
2022-08-26T10:35:36.605Z,5.85
2022-08-26T10:37:42.510Z,6.32
2022-08-26T10:39:55.276Z,5.55
2022-08-26T10:42:05.762Z,6.07
2022-08-26T10:44:13.170Z,6.00
2022-08-26T10:46:22.330Z,5.28
2022-08-26T10:48:36.056Z,5.53
2022-08-26T10:50:41.395Z,6.18
2022-08-26T10:52:55.652Z,7.90
2022-08-26T10:55:04.070Z,7.57
2022-08-26T10:57:20.399Z,6.75
2022-08-26T10:59:37.092Z,7.72
2022-08-26T11:01:43.420Z,7.20
2022-08-26T11:03:58.032Z,7.10
2022-08-26T11:06:25.589Z,7.53
2022-08-26T11:08:31.646Z,7.38
2022-08-26T11:11:04.491Z,6.40
2022-08-26T11:13:07.821Z,6.85
2022-08-26T11:15:14.969Z,6.32
2022-08-26T11:17:57.979Z,6.85
2022-08-26T11:20:09.524Z,7.35
2022-08-26T11:22:28.627Z,6.53
2022-08-26T11:24:42.388Z,6.53
2022-08-26T11:26:56.114Z,6.85
2022-08-26T11:29:03.135Z,6.63
2022-08-26T11:31:11.416Z,7.18
2022-08-26T11:33:59.994Z,6.28
2022-08-26T11:36:02.928Z,6.80
2022-08-26T11:38:19.390Z,6.05
2022-08-26T11:40:26.373Z,6.07
2022-08-26T11:42:40.999Z,6.07
2022-08-26T11:44:49.419Z,5.70
2022-08-26T11:46:59.456Z,6.15
2022-08-26T11:49:05.275Z,7.28
2022-08-26T11:51:11.066Z,6.03
2022-08-26T11:53:19.306Z,5.65
2022-08-26T11:55:23.284Z,5.30
2022-08-26T11:57:27.615Z,5.00
2022-08-26T12:01:41.510Z,5.30
2022-08-26T12:03:51.098Z,5.90
2022-08-26T12:05:55.085Z,5.95
2022-08-26T12:08:03.648Z,5.45
2022-08-26T12:10:07.662Z,5.60
2022-08-26T12:12:12.928Z,5.55
2022-08-26T12:14:19.584Z,5.18
2022-08-26T12:16:25.760Z,4.80
2022-08-26T12:18:35.366Z,6.68
2022-08-26T12:20:48.179Z,5.18
2022-08-26T12:22:51.139Z,4.97
2022-08-26T12:24:56.737Z,4.72
2022-08-26T12:27:16.544Z,5.28
2022-08-26T12:29:27.192Z,5.05
2022-08-26T12:31:33.035Z,5.25
2022-08-26T12:33:36.597Z,4.65
2022-08-26T12:35:41.551Z,5.00
2022-08-26T12:37:49.323Z,4.60
2022-08-26T12:39:53.995Z,4.63
2022-08-26T12:41:58.278Z,4.95
2022-08-26T12:44:01.003Z,4.55
2022-08-26T12:46:04.614Z,4.20
2022-08-26T12:48:13.479Z,5.43
2022-08-26T12:50:20.161Z,5.18
2022-08-26T12:52:30.811Z,5.65
2022-08-26T12:54:56.080Z,4.70
2022-08-26T12:57:10.375Z,5.05
2022-08-26T12:59:23.759Z,4.38
2022-08-26T13:01:26.433Z,4.80
2022-08-26T13:03:32.105Z,5.55
2022-08-26T13:05:36.080Z,4.97
2022-08-26T13:07:40.880Z,5.65
2022-08-26T13:09:43.506Z,4.90
2022-08-26T13:11:59.451Z,5.78
2022-08-26T13:14:07.393Z,6.05
2022-08-26T13:16:10.212Z,6.35
2022-08-26T13:18:12.827Z,6.28
2022-08-26T13:20:15.661Z,6.28
2022-08-26T13:22:22.901Z,6.10
2022-08-26T13:24:32.112Z,7.35
2022-08-26T13:26:35.109Z,6.30
2022-08-26T13:28:37.830Z,6.05
2022-08-26T13:30:42.550Z,5.85
2022-08-26T13:32:45.194Z,5.97
2022-08-26T13:34:51.742Z,6.75
2022-08-26T13:36:56.391Z,8.27
2022-08-26T13:38:58.962Z,7.25
2022-08-26T13:41:03.673Z,6.50
2022-08-26T13:43:06.311Z,7.45
2022-08-26T13:45:10.716Z,6.60
2022-08-26T13:47:13.371Z,6.65
2022-08-26T13:49:16.165Z,7.82
2022-08-26T13:51:20.315Z,8.65
2022-08-26T13:53:23.174Z,10.48
2022-08-26T13:55:25.811Z,8.70
2022-08-26T13:57:31.001Z,7.10
2022-08-26T13:59:33.568Z,8.80
2022-08-26T14:01:39.631Z,7.65
2022-08-26T14:03:42.402Z,7.88
2022-08-26T14:05:45.112Z,8.43
2022-08-26T14:07:47.691Z,10.40
2022-08-26T14:09:50.374Z,8.23
2022-08-26T14:11:54.872Z,7.75
2022-08-26T14:13:59.300Z,8.85
2022-08-26T14:16:03.582Z,8.05
2022-08-26T14:18:09.766Z,7.43
2022-08-26T14:20:15.628Z,7.38
2022-08-26T14:22:21.080Z,7.50
2022-08-26T14:24:23.688Z,7.78
2022-08-26T14:26:29.442Z,7.95
2022-08-26T14:28:32.431Z,7.82
2022-08-26T14:30:38.111Z,7.13
2022-08-26T14:32:45.350Z,7.40
2022-08-26T14:34:47.918Z,7.60
2022-08-26T14:36:50.569Z,7.78
2022-08-26T14:38:54.133Z,7.93
2022-08-26T14:40:56.804Z,7.97
2022-08-26T14:43:00.484Z,8.07
2022-08-26T14:45:06.640Z,8.25
2022-08-26T14:47:11.096Z,7.15
2022-08-26T14:49:14.680Z,7.07
2022-08-26T14:51:17.299Z,7.97
2022-08-26T14:53:37.759Z,6.97
2022-08-26T14:55:42.950Z,7.25
2022-08-26T14:57:45.536Z,7.25
2022-08-26T14:59:50.250Z,7.55
2022-08-26T15:01:54.342Z,7.78
2022-08-26T15:04:01.127Z,6.57
2022-08-26T15:06:04.176Z,7.80
2022-08-26T15:08:10.456Z,7.45
2022-08-26T15:10:16.008Z,8.07
2022-08-26T15:12:18.600Z,8.02
2022-08-26T15:14:22.751Z,7.75
2022-08-26T15:16:25.350Z,7.93
2022-08-26T15:18:28.092Z,8.32
2022-08-26T15:22:42.348Z,7.88
2022-08-26T15:24:45.270Z,8.60
2022-08-26T15:26:49.400Z,8.40
2022-08-26T15:28:52.462Z,7.82
2022-08-26T15:30:55.293Z,8.30
2022-08-26T15:32:57.908Z,7.82
2022-08-26T15:35:00.520Z,8.15
2022-08-26T15:37:05.522Z,7.47
2022-08-26T15:39:08.529Z,8.80
2022-08-26T15:41:11.718Z,9.05
2022-08-26T15:43:27.635Z,9.50
2022-08-26T15:45:33.027Z,8.23
2022-08-26T15:47:55.213Z,9.05
2022-08-26T15:49:58.398Z,8.57
2022-08-26T15:52:02.756Z,9.23
2022-08-26T15:54:12.186Z,8.93
2022-08-26T15:56:14.782Z,9.10
2022-08-26T15:58:17.435Z,8.90
2022-08-26T16:00:20.672Z,8.13
2022-08-26T16:02:28.151Z,8.52
2022-08-26T16:04:34.356Z,8.80
2022-08-26T16:06:39.702Z,9.13
2022-08-26T16:08:42.504Z,8.25
2022-08-26T16:10:50.602Z,8.75
2022-08-26T16:12:53.875Z,9.15
2022-08-26T16:14:56.460Z,9.27
2022-08-26T16:16:59.029Z,8.82
2022-08-26T16:19:06.868Z,9.63
2022-08-26T16:21:15.239Z,9.50
2022-08-26T16:23:18.729Z,10.95
2022-08-26T16:25:21.536Z,10.30
2022-08-26T16:27:25.548Z,9.10
2022-08-26T16:29:28.268Z,7.22
2022-08-26T16:31:31.059Z,7.65
2022-08-26T16:33:33.921Z,6.90
2022-08-26T16:35:36.714Z,6.57
2022-08-26T16:37:40.302Z,7.25
2022-08-26T16:39:45.118Z,7.50
2022-08-26T16:41:47.928Z,6.80
2022-08-26T16:43:52.108Z,6.72
2022-08-26T16:45:54.838Z,7.65
2022-08-26T16:47:57.576Z,6.72
2022-08-26T16:50:00.536Z,5.82
2022-08-26T16:52:03.454Z,6.75
2022-08-26T16:54:08.534Z,5.57
2022-08-26T16:56:13.866Z,6.40
2022-08-26T16:58:16.713Z,6.90
2022-08-26T17:00:27.847Z,6.75
2022-08-26T17:02:30.524Z,6.40
2022-08-26T17:04:33.194Z,6.90
2022-08-26T17:06:35.896Z,6.20
2022-08-26T17:08:39.099Z,6.35
2022-08-26T17:12:49.977Z,6.03
2022-08-26T17:14:52.535Z,6.03
2022-08-26T17:16:57.009Z,6.38
2022-08-26T17:19:00.836Z,6.80
2022-08-26T17:21:05.165Z,7.45
2022-08-26T17:23:10.646Z,6.63
2022-08-26T17:25:15.524Z,6.60
2022-08-26T17:27:18.265Z,7.25
2022-08-26T17:29:20.837Z,7.70
2022-08-26T17:31:24.495Z,7.40
2022-08-26T17:33:29.472Z,7.13
2022-08-26T17:35:32.435Z,7.82
2022-08-26T17:37:35.650Z,7.30
2022-08-26T17:39:43.860Z,7.32
2022-08-26T17:41:46.450Z,7.03
2022-08-26T17:43:49.316Z,7.35
2022-08-26T17:45:52.621Z,17.05
2022-08-26T17:47:55.781Z,10.70
2022-08-26T17:50:00.835Z,7.30
2022-08-26T17:52:03.907Z,7.90
2022-08-26T17:54:07.488Z,7.32
2022-08-26T17:56:13.672Z,6.68
2022-08-26T17:58:17.142Z,6.32
2022-08-26T18:00:22.279Z,7.03
2022-08-26T18:02:24.983Z,6.50
2022-08-26T18:04:27.719Z,6.57
2022-08-26T18:06:31.774Z,5.97
2022-08-26T18:08:34.319Z,5.55
2022-08-26T18:10:36.904Z,6.75
2022-08-26T18:12:40.945Z,6.32
2022-08-26T18:14:43.496Z,6.63
2022-08-26T18:16:46.385Z,6.43
2022-08-26T18:18:53.336Z,6.57
2022-08-26T18:21:01.413Z,6.20
2022-08-26T18:23:06.432Z,7.10
2022-08-26T18:25:10.189Z,6.40
2022-08-26T18:27:12.751Z,6.63
2022-08-26T18:29:16.960Z,6.75
2022-08-26T18:31:19.963Z,6.57
2022-08-26T18:33:22.635Z,6.65
2022-08-26T18:35:28.301Z,6.18
2022-08-26T18:37:32.190Z,6.32
2022-08-26T18:39:36.100Z,6.85
2022-08-26T18:41:42.300Z,6.28
2022-08-26T18:43:44.885Z,7.03
2022-08-26T18:45:47.577Z,6.88
2022-08-26T18:47:50.227Z,8.10
2022-08-26T18:49:52.834Z,7.53
2022-08-26T18:51:55.472Z,7.13
2022-08-26T18:53:58.987Z,7.10
2022-08-26T18:56:02.875Z,7.40
2022-08-26T18:58:05.597Z,6.75
2022-08-26T19:00:10.170Z,7.35
2022-08-26T19:02:13.314Z,8.15
2022-08-26T19:04:15.992Z,7.95
2022-08-26T19:06:21.364Z,8.52
2022-08-26T19:08:23.945Z,8.75
2022-08-26T19:10:26.665Z,7.45
2022-08-26T19:12:30.671Z,7.18
2022-08-26T19:14:36.738Z,7.38
2022-08-26T19:16:39.391Z,7.57
2022-08-26T19:18:42.298Z,7.63
2022-08-26T19:20:47.802Z,7.80
2022-08-26T19:22:50.351Z,8.50
2022-08-26T19:24:52.984Z,7.47
2022-08-26T19:26:58.289Z,7.85
2022-08-26T19:29:02.799Z,7.38
2022-08-26T19:31:05.395Z,8.60
2022-08-26T19:33:09.158Z,7.20
2022-08-26T19:35:11.833Z,6.53
2022-08-26T19:37:14.610Z,6.63
2022-08-26T19:39:17.548Z,5.90
2022-08-26T19:41:27.788Z,6.38
2022-08-26T19:43:40.021Z,6.25
2022-08-26T19:45:45.062Z,6.72
2022-08-26T19:47:47.985Z,5.70
2022-08-26T19:49:54.500Z,6.15
2022-08-26T19:51:57.164Z,6.40
2022-08-26T19:54:01.639Z,6.13
2022-08-26T19:56:04.540Z,5.80
2022-08-26T19:58:07.916Z,6.30
2022-08-26T20:00:14.778Z,6.38
2022-08-26T20:02:19.223Z,6.80
2022-08-26T20:04:22.127Z,6.25
2022-08-26T20:06:25.066Z,6.72
2022-08-26T20:08:28.538Z,6.60
2022-08-26T20:10:34.948Z,6.63
2022-08-26T20:12:37.703Z,6.00
2022-08-26T20:14:40.651Z,6.93
2022-08-26T20:16:43.557Z,6.30
2022-08-26T20:19:05.467Z,6.65
2022-08-26T20:21:25.867Z,6.65
2022-08-26T20:23:28.440Z,6.35
2022-08-26T20:25:32.475Z,5.93
2022-08-26T20:27:38.270Z,6.10
2022-08-26T20:29:42.699Z,7.05
2022-08-26T20:31:46.391Z,5.90
2022-08-26T20:33:51.575Z,6.07
2022-08-26T20:35:54.200Z,6.53
2022-08-26T20:37:56.782Z,7.10
2022-08-26T20:39:59.451Z,7.00
2022-08-26T20:42:02.640Z,7.20
2022-08-26T20:44:05.899Z,7.28
2022-08-26T20:46:12.780Z,6.40
2022-08-26T20:48:21.529Z,6.35
2022-08-26T20:50:25.487Z,5.93
2022-08-26T20:52:28.070Z,6.30
2022-08-26T20:54:30.752Z,6.20
2022-08-26T20:56:34.042Z,6.15
2022-08-26T20:58:37.894Z,6.30
2022-08-26T21:00:40.515Z,6.30
2022-08-26T21:02:43.766Z,6.40
2022-08-26T21:04:46.463Z,6.15
2022-08-26T21:06:52.881Z,6.80
2022-08-26T21:08:56.941Z,7.18
2022-08-26T21:11:00.409Z,6.60
2022-08-26T21:13:03.168Z,7.57
2022-08-26T21:15:07.381Z,6.68
2022-08-26T21:17:09.947Z,6.80
2022-08-26T21:19:14.959Z,6.30
2022-08-26T21:21:17.847Z,6.30
2022-08-26T21:23:23.142Z,6.95
2022-08-26T21:25:28.006Z,7.18
2022-08-26T21:27:30.657Z,6.55
2022-08-26T21:29:33.236Z,5.95
2022-08-26T21:31:36.413Z,6.20
2022-08-26T21:33:40.006Z,6.70
2022-08-26T21:35:42.599Z,6.63
2022-08-26T21:37:45.181Z,6.45
2022-08-26T21:39:49.157Z,6.30
2022-08-26T21:41:51.772Z,6.80
2022-08-26T21:43:59.126Z,6.63
2022-08-26T21:46:03.912Z,6.88
2022-08-26T21:48:07.794Z,7.30
2022-08-26T21:50:11.306Z,6.45
2022-08-26T21:52:13.914Z,7.05
2022-08-26T21:54:18.005Z,5.78
2022-08-26T21:56:24.724Z,6.47
2022-08-26T21:58:27.338Z,5.43
2022-08-26T22:00:29.955Z,5.78
2022-08-26T22:02:32.690Z,5.90
2022-08-26T22:04:37.309Z,6.30
2022-08-26T22:06:43.240Z,6.03
2022-08-26T22:08:45.858Z,6.22
2022-08-26T22:10:51.778Z,5.53
2022-08-26T22:12:55.972Z,6.38
2022-08-26T22:14:59.229Z,5.35
2022-08-26T22:17:02.917Z,5.80
2022-08-26T22:19:05.613Z,5.57
2022-08-26T22:21:10.287Z,5.82
2022-08-26T22:23:14.762Z,5.40
2022-08-26T22:25:20.417Z,6.20
2022-08-26T22:27:23.008Z,5.97
2022-08-26T22:29:27.000Z,5.53
2022-08-26T22:31:37.362Z,5.47
2022-08-26T22:33:42.620Z,5.97
2022-08-26T22:35:47.232Z,6.03
2022-08-26T22:37:49.888Z,6.28
2022-08-26T22:39:52.479Z,5.50
2022-08-26T22:41:56.796Z,6.40
2022-08-26T22:43:59.415Z,5.97
2022-08-26T22:46:03.542Z,5.80
2022-08-26T22:48:06.523Z,5.30
2022-08-26T22:50:10.140Z,5.82
2022-08-26T22:52:12.699Z,5.60
2022-08-26T22:54:16.439Z,5.50
2022-08-26T22:56:21.100Z,5.65
2022-08-26T22:58:30.833Z,5.70
2022-08-26T23:00:34.377Z,5.78
2022-08-26T23:02:38.345Z,5.55
2022-08-26T23:04:41.305Z,6.15
2022-08-26T23:06:47.666Z,5.57
2022-08-26T23:08:50.617Z,5.78
2022-08-26T23:10:53.356Z,5.20
2022-08-26T23:12:55.936Z,5.82
2022-08-26T23:14:58.555Z,5.85
2022-08-26T23:17:01.267Z,5.80
2022-08-26T23:19:08.396Z,6.18
2022-08-26T23:21:11.905Z,6.38
2022-08-26T23:23:14.459Z,6.38
2022-08-26T23:25:17.083Z,6.95
2022-08-26T23:27:20.431Z,6.90
2022-08-26T23:29:23.053Z,5.85
2022-08-26T23:31:25.812Z,6.60
2022-08-26T23:33:48.841Z,7.38
2022-08-26T23:35:51.805Z,6.20
2022-08-26T23:37:54.626Z,6.68
2022-08-26T23:40:04.518Z,6.75
2022-08-26T23:42:07.476Z,6.70
2022-08-26T23:44:10.139Z,5.72
2022-08-26T23:46:12.801Z,6.22
2022-08-26T23:48:15.387Z,6.65
2022-08-26T23:50:44.648Z,6.78
2022-08-26T23:53:05.529Z,7.22
2022-08-26T23:55:10.658Z,7.63
2022-08-26T23:57:13.261Z,6.47
2022-08-26T23:59:15.859Z,7.10
